KJWG

Watonga Regional Airport

Watonga, Oklahoma, USA
METAR KJWG 150315Z AUTO 16010KT 10SM -RA SCT016 SCT035 BKN041 21/21 A2995 RMK AO2 LTG DSNT E THRU S P0003 T02080208
Observed Flight Rules
Aug-15 @ 03:15 UTC (19 minutes ago) Visual Flight Rules
Wind Visibility Clouds Conditions
160° at 10 knots 10 miles
  • Scattered at 1,600' AGL
  • Scattered at 3,500' AGL
  • Broken at 4,100' AGL
  • Light Rain
Temperatures Readings Precipitation
Current 21°C / 70°F
Dewpoint 21°C / 70°F
Humidity 100%
Altimeter 29.95" Hg
Pressure 1014 hPa
Elevation 472
Current Rain 0.03
METAR KJWG 150315Z AUTO 16010KT 10SM -RA SCT016 SCT035 BKN041 21/21 A2995 RMK AO2 LTG DSNT E THRU S P0003 T02080208
Observed Flight Rules
Aug-15 @ 03:15 UTC
(19 minutes ago)
VFR
Wind Visibility
160° at 10 knots 10 miles
Clouds
  • Scattered at 1,600' AGL
  • Scattered at 3,500' AGL
  • Broken at 4,100' AGL
Conditions
  • Light Rain
Temperature Dewpoint
21°C / 70°F 21°C / 70°F
Humidity Altimeter Pressure
100% 29.95" Hg 1014 hPa
Current Rain
0.03